sensor_id;sensor_type;location;lat;lon;timestamp;temperature;humidity
22081;DHT22;11207;59.512;18.050;2023-07-16T00:00:10;16.90;99.90
22081;DHT22;11207;59.512;18.050;2023-07-16T00:02:37;16.90;99.90
22081;DHT22;11207;59.512;18.050;2023-07-16T00:05:03;16.80;99.90
22081;DHT22;11207;59.512;18.050;2023-07-16T00:07:29;16.80;99.90
22081;DHT22;11207;59.512;18.050;2023-07-16T00:09:55;16.80;99.90
22081;DHT22;11207;59.512;18.050;2023-07-16T00:12:20;16.80;99.90
22081;DHT22;11207;59.512;18.050;2023-07-16T00:14:47;16.70;99.90
22081;DHT22;11207;59.512;18.050;2023-07-16T00:17:12;16.70;99.90
22081;DHT22;11207;59.512;18.050;2023-07-16T00:19:38;16.70;99.90
22081;DHT22;11207;59.512;18.050;2023-07-16T00:22:04;16.80;99.90
22081;DHT22;11207;59.512;18.050;2023-07-16T00:24:29;16.70;99.90
22081;DHT22;11207;59.512;18.050;2023-07-16T00:26:55;16.80;99.90
22081;DHT22;11207;59.512;18.050;2023-07-16T00:29:20;16.80;99.90
22081;DHT22;11207;59.512;18.050;2023-07-16T00:31:46;16.80;99.90
22081;DHT22;11207;59.512;18.050;2023-07-16T00:34:11;16.70;99.90
22081;DHT22;11207;59.512;18.050;2023-07-16T00:36:38;16.70;99.90
22081;DHT22;11207;59.512;18.050;2023-07-16T00:39:05;16.70;99.90
22081;DHT22;11207;59.512;18.050;2023-07-16T00:41:30;16.70;99.90
22081;DHT22;11207;59.512;18.050;2023-07-16T00:43:56;16.80;99.90
22081;DHT22;11207;59.512;18.050;2023-07-16T00:46:22;16.70;99.90
22081;DHT22;11207;59.512;18.050;2023-07-16T00:48:48;16.70;99.90
22081;DHT22;11207;59.512;18.050;2023-07-16T00:51:14;16.70;99.90
22081;DHT22;11207;59.512;18.050;2023-07-16T00:53:41;16.60;99.90
22081;DHT22;11207;59.512;18.050;2023-07-16T00:56:08;16.60;99.90
22081;DHT22;11207;59.512;18.050;2023-07-16T00:58:34;16.80;99.90
22081;DHT22;11207;59.512;18.050;2023-07-16T01:01:02;16.90;99.90
22081;DHT22;11207;59.512;18.050;2023-07-16T01:03:28;16.90;99.90
22081;DHT22;11207;59.512;18.050;2023-07-16T01:06:24;16.90;99.90
22081;DHT22;11207;59.512;18.050;2023-07-16T01:09:10;17.10;99.90
22081;DHT22;11207;59.512;18.050;2023-07-16T01:11:37;17.30;99.90
22081;DHT22;11207;59.512;18.050;2023-07-16T01:14:05;17.40;99.90
22081;DHT22;11207;59.512;18.050;2023-07-16T01:16:32;17.50;99.90
22081;DHT22;11207;59.512;18.050;2023-07-16T01:18:58;17.60;99.90
22081;DHT22;11207;59.512;18.050;2023-07-16T01:21:24;17.60;99.90
22081;DHT22;11207;59.512;18.050;2023-07-16T01:24:04;17.50;99.90
22081;DHT22;11207;59.512;18.050;2023-07-16T01:27:03;17.60;99.90
22081;DHT22;11207;59.512;18.050;2023-07-16T01:29:49;17.60;99.90
22081;DHT22;11207;59.512;18.050;2023-07-16T01:32:16;17.60;99.90
22081;DHT22;11207;59.512;18.050;2023-07-16T01:34:42;17.70;99.90
22081;DHT22;11207;59.512;18.050;2023-07-16T01:37:09;17.80;99.90
22081;DHT22;11207;59.512;18.050;2023-07-16T01:39:35;17.80;99.90
22081;DHT22;11207;59.512;18.050;2023-07-16T01:42:01;17.80;99.90
22081;DHT22;11207;59.512;18.050;2023-07-16T01:44:27;17.70;99.90
22081;DHT22;11207;59.512;18.050;2023-07-16T01:47:29;17.80;99.90
22081;DHT22;11207;59.512;18.050;2023-07-16T01:49:57;17.90;99.90
22081;DHT22;11207;59.512;18.050;2023-07-16T01:52:23;17.90;99.90
22081;DHT22;11207;59.512;18.050;2023-07-16T01:54:48;18.00;99.90
22081;DHT22;11207;59.512;18.050;2023-07-16T01:57:14;18.00;99.90
22081;DHT22;11207;59.512;18.050;2023-07-16T01:59:39;18.10;99.90
22081;DHT22;11207;59.512;18.050;2023-07-16T02:02:06;18.20;99.90
22081;DHT22;11207;59.512;18.050;2023-07-16T02:04:31;18.10;99.90
22081;DHT22;11207;59.512;18.050;2023-07-16T02:06:57;18.20;99.90
22081;DHT22;11207;59.512;18.050;2023-07-16T02:09:23;18.20;99.90
22081;DHT22;11207;59.512;18.050;2023-07-16T02:11:48;18.10;99.90
22081;DHT22;11207;59.512;18.050;2023-07-16T02:14:14;18.10;99.90
22081;DHT22;11207;59.512;18.050;2023-07-16T02:16:41;18.20;99.90
22081;DHT22;11207;59.512;18.050;2023-07-16T02:19:07;18.30;99.90
22081;DHT22;11207;59.512;18.050;2023-07-16T02:21:32;18.30;99.90
22081;DHT22;11207;59.512;18.050;2023-07-16T02:23:58;18.30;99.90
22081;DHT22;11207;59.512;18.050;2023-07-16T02:26:23;18.30;99.90
22081;DHT22;11207;59.512;18.050;2023-07-16T02:28:49;18.20;99.90
22081;DHT22;11207;59.512;18.050;2023-07-16T02:31:15;18.30;99.90
22081;DHT22;11207;59.512;18.050;2023-07-16T02:33:40;18.30;99.90
22081;DHT22;11207;59.512;18.050;2023-07-16T02:36:06;18.30;99.90
22081;DHT22;11207;59.512;18.050;2023-07-16T02:38:32;18.40;99.90
22081;DHT22;11207;59.512;18.050;2023-07-16T02:40:57;18.30;99.90
22081;DHT22;11207;59.512;18.050;2023-07-16T02:43:23;18.40;99.90
22081;DHT22;11207;59.512;18.050;2023-07-16T02:45:48;18.30;99.90
22081;DHT22;11207;59.512;18.050;2023-07-16T02:48:14;18.30;99.90
22081;DHT22;11207;59.512;18.050;2023-07-16T02:50:40;18.30;99.90
22081;DHT22;11207;59.512;18.050;2023-07-16T02:53:06;18.30;99.90
22081;DHT22;11207;59.512;18.050;2023-07-16T02:55:32;18.30;99.90
22081;DHT22;11207;59.512;18.050;2023-07-16T02:57:59;18.30;99.90
22081;DHT22;11207;59.512;18.050;2023-07-16T03:00:28;18.30;99.90
22081;DHT22;11207;59.512;18.050;2023-07-16T03:02:53;18.40;99.90
22081;DHT22;11207;59.512;18.050;2023-07-16T03:05:19;18.50;99.90
22081;DHT22;11207;59.512;18.050;2023-07-16T03:07:44;18.50;99.90
22081;DHT22;11207;59.512;18.050;2023-07-16T03:10:10;18.40;99.90
22081;DHT22;11207;59.512;18.050;2023-07-16T03:12:36;18.50;99.90
22081;DHT22;11207;59.512;18.050;2023-07-16T03:15:01;18.40;99.90
22081;DHT22;11207;59.512;18.050;2023-07-16T03:17:27;18.40;99.90
22081;DHT22;11207;59.512;18.050;2023-07-16T03:19:53;18.50;99.90
22081;DHT22;11207;59.512;18.050;2023-07-16T03:22:18;18.50;99.90
22081;DHT22;11207;59.512;18.050;2023-07-16T03:24:44;18.50;99.90
22081;DHT22;11207;59.512;18.050;2023-07-16T03:27:09;18.60;99.90
22081;DHT22;11207;59.512;18.050;2023-07-16T03:29:35;18.60;99.90
22081;DHT22;11207;59.512;18.050;2023-07-16T03:32:01;18.50;99.90
22081;DHT22;11207;59.512;18.050;2023-07-16T03:34:27;18.40;99.90
22081;DHT22;11207;59.512;18.050;2023-07-16T03:36:52;18.40;99.90
22081;DHT22;11207;59.512;18.050;2023-07-16T03:39:18;18.40;99.90
22081;DHT22;11207;59.512;18.050;2023-07-16T03:41:43;18.40;99.90
22081;DHT22;11207;59.512;18.050;2023-07-16T03:44:09;18.30;99.90
22081;DHT22;11207;59.512;18.050;2023-07-16T03:46:35;18.20;99.90
22081;DHT22;11207;59.512;18.050;2023-07-16T03:49:00;18.10;99.90
22081;DHT22;11207;59.512;18.050;2023-07-16T03:51:26;18.10;99.90
22081;DHT22;11207;59.512;18.050;2023-07-16T03:53:51;18.10;99.90
22081;DHT22;11207;59.512;18.050;2023-07-16T03:56:17;18.10;99.90
22081;DHT22;11207;59.512;18.050;2023-07-16T03:58:43;18.10;99.90
22081;DHT22;11207;59.512;18.050;2023-07-16T04:01:09;18.10;99.90
22081;DHT22;11207;59.512;18.050;2023-07-16T04:03:35;18.00;99.90
22081;DHT22;11207;59.512;18.050;2023-07-16T04:06:04;18.00;99.90
22081;DHT22;11207;59.512;18.050;2023-07-16T04:08:30;17.80;99.90
22081;DHT22;11207;59.512;18.050;2023-07-16T04:10:56;17.90;99.90
22081;DHT22;11207;59.512;18.050;2023-07-16T04:13:22;17.70;99.90
22081;DHT22;11207;59.512;18.050;2023-07-16T04:15:47;17.50;99.90
22081;DHT22;11207;59.512;18.050;2023-07-16T04:18:13;17.50;99.90
22081;DHT22;11207;59.512;18.050;2023-07-16T04:20:38;17.40;99.90
22081;DHT22;11207;59.512;18.050;2023-07-16T04:23:04;17.40;99.90
22081;DHT22;11207;59.512;18.050;2023-07-16T04:25:29;17.40;99.90
22081;DHT22;11207;59.512;18.050;2023-07-16T04:27:56;17.30;99.90
22081;DHT22;11207;59.512;18.050;2023-07-16T04:30:22;17.40;99.90
22081;DHT22;11207;59.512;18.050;2023-07-16T04:32:47;17.20;99.90
22081;DHT22;11207;59.512;18.050;2023-07-16T04:35:13;17.20;99.90
22081;DHT22;11207;59.512;18.050;2023-07-16T04:37:39;17.20;99.90
22081;DHT22;11207;59.512;18.050;2023-07-16T04:40:05;17.30;99.90
22081;DHT22;11207;59.512;18.050;2023-07-16T04:42:31;17.30;99.90
22081;DHT22;11207;59.512;18.050;2023-07-16T04:44:56;17.40;99.90
22081;DHT22;11207;59.512;18.050;2023-07-16T04:47:22;17.40;99.90
22081;DHT22;11207;59.512;18.050;2023-07-16T04:49:48;17.40;99.90
22081;DHT22;11207;59.512;18.050;2023-07-16T04:52:13;17.40;99.90
22081;DHT22;11207;59.512;18.050;2023-07-16T04:54:39;17.40;99.90
22081;DHT22;11207;59.512;18.050;2023-07-16T04:57:06;17.40;99.90
22081;DHT22;11207;59.512;18.050;2023-07-16T04:59:32;17.40;99.90
22081;DHT22;11207;59.512;18.050;2023-07-16T05:01:57;17.60;99.90
22081;DHT22;11207;59.512;18.050;2023-07-16T05:04:23;17.60;99.90
22081;DHT22;11207;59.512;18.050;2023-07-16T05:06:48;17.60;99.90
22081;DHT22;11207;59.512;18.050;2023-07-16T05:09:14;17.60;99.90
22081;DHT22;11207;59.512;18.050;2023-07-16T05:11:40;17.70;99.90
22081;DHT22;11207;59.512;18.050;2023-07-16T05:14:05;17.60;99.90
22081;DHT22;11207;59.512;18.050;2023-07-16T05:16:31;17.60;99.90
22081;DHT22;11207;59.512;18.050;2023-07-16T05:18:56;17.60;99.90
22081;DHT22;11207;59.512;18.050;2023-07-16T05:21:22;17.70;99.90
22081;DHT22;11207;59.512;18.050;2023-07-16T05:23:47;17.70;99.90
22081;DHT22;11207;59.512;18.050;2023-07-16T05:26:13;17.80;99.90
22081;DHT22;11207;59.512;18.050;2023-07-16T05:28:38;17.90;99.90
22081;DHT22;11207;59.512;18.050;2023-07-16T05:31:04;17.80;99.90
22081;DHT22;11207;59.512;18.050;2023-07-16T05:33:30;17.90;99.90
22081;DHT22;11207;59.512;18.050;2023-07-16T05:35:55;18.00;99.90
22081;DHT22;11207;59.512;18.050;2023-07-16T05:38:21;18.10;99.90
22081;DHT22;11207;59.512;18.050;2023-07-16T05:40:47;18.20;99.90
22081;DHT22;11207;59.512;18.050;2023-07-16T05:43:12;18.20;99.90
22081;DHT22;11207;59.512;18.050;2023-07-16T05:45:39;18.30;99.90
22081;DHT22;11207;59.512;18.050;2023-07-16T05:48:05;18.40;99.90
22081;DHT22;11207;59.512;18.050;2023-07-16T05:50:30;18.60;99.90
22081;DHT22;11207;59.512;18.050;2023-07-16T05:52:56;18.60;99.90
22081;DHT22;11207;59.512;18.050;2023-07-16T05:55:21;18.70;99.90
22081;DHT22;11207;59.512;18.050;2023-07-16T05:57:47;19.00;99.90
22081;DHT22;11207;59.512;18.050;2023-07-16T06:00:13;19.00;99.90
22081;DHT22;11207;59.512;18.050;2023-07-16T06:02:39;19.10;99.90
22081;DHT22;11207;59.512;18.050;2023-07-16T06:05:05;19.40;99.90
22081;DHT22;11207;59.512;18.050;2023-07-16T06:07:31;19.70;99.90
22081;DHT22;11207;59.512;18.050;2023-07-16T06:09:58;20.00;99.90
22081;DHT22;11207;59.512;18.050;2023-07-16T06:12:24;20.10;99.90
22081;DHT22;11207;59.512;18.050;2023-07-16T06:14:49;20.20;99.90
22081;DHT22;11207;59.512;18.050;2023-07-16T06:17:15;20.20;99.90
22081;DHT22;11207;59.512;18.050;2023-07-16T06:19:40;20.20;99.90
22081;DHT22;11207;59.512;18.050;2023-07-16T06:22:06;20.20;99.90
22081;DHT22;11207;59.512;18.050;2023-07-16T06:24:34;20.20;99.90
22081;DHT22;11207;59.512;18.050;2023-07-16T06:27:00;20.10;99.90
22081;DHT22;11207;59.512;18.050;2023-07-16T06:29:26;20.10;99.90
22081;DHT22;11207;59.512;18.050;2023-07-16T06:31:55;20.10;99.90
22081;DHT22;11207;59.512;18.050;2023-07-16T06:34:27;20.20;99.90
22081;DHT22;11207;59.512;18.050;2023-07-16T06:36:53;20.30;99.90
22081;DHT22;11207;59.512;18.050;2023-07-16T06:39:18;20.40;99.90
22081;DHT22;11207;59.512;18.050;2023-07-16T06:41:44;20.30;99.90
22081;DHT22;11207;59.512;18.050;2023-07-16T06:44:09;20.30;99.90
22081;DHT22;11207;59.512;18.050;2023-07-16T06:46:35;20.40;99.90
22081;DHT22;11207;59.512;18.050;2023-07-16T06:49:01;20.40;99.90
22081;DHT22;11207;59.512;18.050;2023-07-16T06:51:26;20.40;99.90
22081;DHT22;11207;59.512;18.050;2023-07-16T06:53:54;20.30;99.90
22081;DHT22;11207;59.512;18.050;2023-07-16T06:56:20;20.40;99.90
22081;DHT22;11207;59.512;18.050;2023-07-16T06:58:45;20.40;99.90
22081;DHT22;11207;59.512;18.050;2023-07-16T07:01:11;20.20;99.90
22081;DHT22;11207;59.512;18.050;2023-07-16T07:03:37;20.30;99.90
22081;DHT22;11207;59.512;18.050;2023-07-16T07:06:03;20.20;99.90
22081;DHT22;11207;59.512;18.050;2023-07-16T07:08:29;20.20;99.90
22081;DHT22;11207;59.512;18.050;2023-07-16T07:10:55;20.20;99.90
22081;DHT22;11207;59.512;18.050;2023-07-16T07:13:20;20.30;99.90
22081;DHT22;11207;59.512;18.050;2023-07-16T07:15:46;20.30;99.90
22081;DHT22;11207;59.512;18.050;2023-07-16T07:18:12;20.30;99.90
22081;DHT22;11207;59.512;18.050;2023-07-16T07:20:39;20.30;99.90
22081;DHT22;11207;59.512;18.050;2023-07-16T07:23:05;20.50;99.90
22081;DHT22;11207;59.512;18.050;2023-07-16T07:25:31;20.50;99.90
22081;DHT22;11207;59.512;18.050;2023-07-16T07:27:57;20.50;99.90
22081;DHT22;11207;59.512;18.050;2023-07-16T07:30:23;20.50;99.90
22081;DHT22;11207;59.512;18.050;2023-07-16T07:32:48;20.50;99.90
22081;DHT22;11207;59.512;18.050;2023-07-16T07:35:14;20.40;99.90
22081;DHT22;11207;59.512;18.050;2023-07-16T07:37:39;20.40;99.90
22081;DHT22;11207;59.512;18.050;2023-07-16T07:40:05;20.40;99.90
22081;DHT22;11207;59.512;18.050;2023-07-16T07:42:33;20.40;99.90
22081;DHT22;11207;59.512;18.050;2023-07-16T07:44:58;20.40;99.90
22081;DHT22;11207;59.512;18.050;2023-07-16T07:47:24;20.40;99.90
22081;DHT22;11207;59.512;18.050;2023-07-16T07:49:52;20.30;99.90
22081;DHT22;11207;59.512;18.050;2023-07-16T07:52:18;20.30;99.90
22081;DHT22;11207;59.512;18.050;2023-07-16T07:54:43;20.40;99.90
22081;DHT22;11207;59.512;18.050;2023-07-16T07:57:09;20.30;99.90
22081;DHT22;11207;59.512;18.050;2023-07-16T07:59:34;20.40;99.90
22081;DHT22;11207;59.512;18.050;2023-07-16T08:02:00;20.40;99.90
22081;DHT22;11207;59.512;18.050;2023-07-16T08:04:27;20.40;99.90
22081;DHT22;11207;59.512;18.050;2023-07-16T08:06:53;20.40;99.90
22081;DHT22;11207;59.512;18.050;2023-07-16T08:09:19;20.40;99.90
22081;DHT22;11207;59.512;18.050;2023-07-16T08:11:44;20.40;99.90
22081;DHT22;11207;59.512;18.050;2023-07-16T08:14:10;20.40;99.90
22081;DHT22;11207;59.512;18.050;2023-07-16T08:16:36;20.40;99.90
22081;DHT22;11207;59.512;18.050;2023-07-16T08:19:01;20.40;99.90
22081;DHT22;11207;59.512;18.050;2023-07-16T08:21:27;20.50;99.90
22081;DHT22;11207;59.512;18.050;2023-07-16T08:23:52;20.50;99.90
22081;DHT22;11207;59.512;18.050;2023-07-16T08:26:18;20.50;99.90
22081;DHT22;11207;59.512;18.050;2023-07-16T08:28:43;20.50;99.90
22081;DHT22;11207;59.512;18.050;2023-07-16T08:31:12;20.50;99.90
22081;DHT22;11207;59.512;18.050;2023-07-16T08:33:39;20.60;99.90
22081;DHT22;11207;59.512;18.050;2023-07-16T08:36:05;20.60;99.90
22081;DHT22;11207;59.512;18.050;2023-07-16T08:38:30;20.60;99.90
22081;DHT22;11207;59.512;18.050;2023-07-16T08:40:56;20.60;99.90
22081;DHT22;11207;59.512;18.050;2023-07-16T08:43:22;20.50;99.90
22081;DHT22;11207;59.512;18.050;2023-07-16T08:45:49;20.50;99.90
22081;DHT22;11207;59.512;18.050;2023-07-16T08:48:19;20.60;99.90
22081;DHT22;11207;59.512;18.050;2023-07-16T08:50:48;20.50;99.90
22081;DHT22;11207;59.512;18.050;2023-07-16T08:53:18;20.50;99.90
22081;DHT22;11207;59.512;18.050;2023-07-16T08:55:44;20.50;99.90
22081;DHT22;11207;59.512;18.050;2023-07-16T08:58:12;20.40;99.90
22081;DHT22;11207;59.512;18.050;2023-07-16T09:00:41;20.40;99.90
22081;DHT22;11207;59.512;18.050;2023-07-16T09:03:08;20.30;99.90
22081;DHT22;11207;59.512;18.050;2023-07-16T09:05:35;20.30;99.90
22081;DHT22;11207;59.512;18.050;2023-07-16T09:08:01;20.30;99.90
22081;DHT22;11207;59.512;18.050;2023-07-16T09:10:27;20.20;99.90
22081;DHT22;11207;59.512;18.050;2023-07-16T09:12:53;20.10;99.90
22081;DHT22;11207;59.512;18.050;2023-07-16T09:15:19;20.00;99.90
22081;DHT22;11207;59.512;18.050;2023-07-16T09:17:48;20.00;99.90
22081;DHT22;11207;59.512;18.050;2023-07-16T09:20:18;19.90;99.90
22081;DHT22;11207;59.512;18.050;2023-07-16T09:22:44;19.90;99.90
22081;DHT22;11207;59.512;18.050;2023-07-16T09:25:10;19.90;99.90
22081;DHT22;11207;59.512;18.050;2023-07-16T09:27:36;19.80;99.90
22081;DHT22;11207;59.512;18.050;2023-07-16T09:30:07;19.80;99.90
22081;DHT22;11207;59.512;18.050;2023-07-16T09:32:39;19.70;99.90
22081;DHT22;11207;59.512;18.050;2023-07-16T09:35:15;19.70;99.90
22081;DHT22;11207;59.512;18.050;2023-07-16T09:37:41;19.60;99.90
22081;DHT22;11207;59.512;18.050;2023-07-16T09:40:09;19.60;99.90
22081;DHT22;11207;59.512;18.050;2023-07-16T09:42:42;19.50;99.90
22081;DHT22;11207;59.512;18.050;2023-07-16T09:45:18;19.50;99.90
22081;DHT22;11207;59.512;18.050;2023-07-16T09:47:44;19.40;99.90
22081;DHT22;11207;59.512;18.050;2023-07-16T09:50:11;19.30;99.90
22081;DHT22;11207;59.512;18.050;2023-07-16T09:52:37;19.30;99.90
22081;DHT22;11207;59.512;18.050;2023-07-16T09:55:06;19.10;99.90
22081;DHT22;11207;59.512;18.050;2023-07-16T09:57:39;19.20;99.90
22081;DHT22;11207;59.512;18.050;2023-07-16T10:00:12;19.20;99.90
22081;DHT22;11207;59.512;18.050;2023-07-16T10:02:39;19.10;99.90
22081;DHT22;11207;59.512;18.050;2023-07-16T10:05:18;19.10;99.90
22081;DHT22;11207;59.512;18.050;2023-07-16T10:07:52;19.10;99.90
22081;DHT22;11207;59.512;18.050;2023-07-16T10:10:18;19.00;99.90
22081;DHT22;11207;59.512;18.050;2023-07-16T10:12:55;18.90;99.90
22081;DHT22;11207;59.512;18.050;2023-07-16T10:15:26;18.80;99.90
22081;DHT22;11207;59.512;18.050;2023-07-16T10:17:52;18.80;99.90
22081;DHT22;11207;59.512;18.050;2023-07-16T10:20:28;18.80;99.90
22081;DHT22;11207;59.512;18.050;2023-07-16T10:22:54;18.70;99.90
22081;DHT22;11207;59.512;18.050;2023-07-16T10:27:47;18.60;99.90
22081;DHT22;11207;59.512;18.050;2023-07-16T10:30:13;18.60;99.90
22081;DHT22;11207;59.512;18.050;2023-07-16T10:32:39;18.60;99.90
22081;DHT22;11207;59.512;18.050;2023-07-16T10:35:06;18.60;99.90
22081;DHT22;11207;59.512;18.050;2023-07-16T10:37:34;18.60;99.90
22081;DHT22;11207;59.512;18.050;2023-07-16T10:40:01;18.70;99.90
22081;DHT22;11207;59.512;18.050;2023-07-16T10:42:28;18.60;99.90
22081;DHT22;11207;59.512;18.050;2023-07-16T10:44:58;18.70;99.90
22081;DHT22;11207;59.512;18.050;2023-07-16T10:47:35;18.70;99.90
22081;DHT22;11207;59.512;18.050;2023-07-16T10:50:04;18.70;99.90
22081;DHT22;11207;59.512;18.050;2023-07-16T10:52:30;18.80;99.90
22081;DHT22;11207;59.512;18.050;2023-07-16T10:54:56;18.80;99.90
22081;DHT22;11207;59.512;18.050;2023-07-16T10:57:27;18.80;99.90
22081;DHT22;11207;59.512;18.050;2023-07-16T10:59:54;18.80;99.90
22081;DHT22;11207;59.512;18.050;2023-07-16T11:02:22;18.80;99.90
22081;DHT22;11207;59.512;18.050;2023-07-16T11:04:48;18.80;99.90
22081;DHT22;11207;59.512;18.050;2023-07-16T11:07:15;18.80;99.90
22081;DHT22;11207;59.512;18.050;2023-07-16T11:09:45;18.80;99.90
22081;DHT22;11207;59.512;18.050;2023-07-16T11:12:13;18.90;99.90
22081;DHT22;11207;59.512;18.050;2023-07-16T11:14:45;18.90;99.90
22081;DHT22;11207;59.512;18.050;2023-07-16T11:17:12;19.00;99.90
22081;DHT22;11207;59.512;18.050;2023-07-16T11:19:39;19.00;99.90
22081;DHT22;11207;59.512;18.050;2023-07-16T11:22:06;19.00;99.90
22081;DHT22;11207;59.512;18.050;2023-07-16T11:24:40;19.00;99.90
22081;DHT22;11207;59.512;18.050;2023-07-16T11:27:19;19.00;99.90
22081;DHT22;11207;59.512;18.050;2023-07-16T11:29:50;19.00;99.90
22081;DHT22;11207;59.512;18.050;2023-07-16T11:32:33;19.10;99.90
22081;DHT22;11207;59.512;18.050;2023-07-16T11:35:04;19.10;99.90
22081;DHT22;11207;59.512;18.050;2023-07-16T11:37:32;19.20;99.90
22081;DHT22;11207;59.512;18.050;2023-07-16T11:40:00;19.10;99.90
22081;DHT22;11207;59.512;18.050;2023-07-16T11:42:35;19.10;99.90
22081;DHT22;11207;59.512;18.050;2023-07-16T11:45:01;19.20;99.90
22081;DHT22;11207;59.512;18.050;2023-07-16T11:47:27;19.30;99.90
22081;DHT22;11207;59.512;18.050;2023-07-16T11:49:53;19.50;99.90
22081;DHT22;11207;59.512;18.050;2023-07-16T11:52:21;19.60;99.90
22081;DHT22;11207;59.512;18.050;2023-07-16T11:54:47;19.70;99.90
22081;DHT22;11207;59.512;18.050;2023-07-16T11:57:13;19.60;99.90
22081;DHT22;11207;59.512;18.050;2023-07-16T11:59:38;19.80;99.90
22081;DHT22;11207;59.512;18.050;2023-07-16T12:02:04;19.80;99.90
22081;DHT22;11207;59.512;18.050;2023-07-16T12:04:30;19.90;99.90
22081;DHT22;11207;59.512;18.050;2023-07-16T12:06:55;20.00;99.90
22081;DHT22;11207;59.512;18.050;2023-07-16T12:09:21;20.20;99.90
22081;DHT22;11207;59.512;18.050;2023-07-16T12:11:46;20.20;99.90
22081;DHT22;11207;59.512;18.050;2023-07-16T12:14:12;20.40;99.90
22081;DHT22;11207;59.512;18.050;2023-07-16T12:16:38;20.60;99.90
22081;DHT22;11207;59.512;18.050;2023-07-16T12:19:07;20.80;99.90
22081;DHT22;11207;59.512;18.050;2023-07-16T12:21:32;20.90;99.90
22081;DHT22;11207;59.512;18.050;2023-07-16T12:23:58;21.00;99.90
22081;DHT22;11207;59.512;18.050;2023-07-16T12:26:24;21.10;99.90
22081;DHT22;11207;59.512;18.050;2023-07-16T12:28:49;21.10;99.90
22081;DHT22;11207;59.512;18.050;2023-07-16T12:31:15;21.10;99.90
22081;DHT22;11207;59.512;18.050;2023-07-16T12:33:42;21.10;99.90
22081;DHT22;11207;59.512;18.050;2023-07-16T12:36:08;21.00;99.90
22081;DHT22;11207;59.512;18.050;2023-07-16T12:38:33;21.10;99.90
22081;DHT22;11207;59.512;18.050;2023-07-16T12:40:59;21.30;99.90
22081;DHT22;11207;59.512;18.050;2023-07-16T12:43:24;21.50;99.90
22081;DHT22;11207;59.512;18.050;2023-07-16T12:45:50;21.40;99.90
22081;DHT22;11207;59.512;18.050;2023-07-16T12:48:15;21.60;99.90
22081;DHT22;11207;59.512;18.050;2023-07-16T12:50:41;21.80;99.90
22081;DHT22;11207;59.512;18.050;2023-07-16T12:53:06;21.80;99.90
22081;DHT22;11207;59.512;18.050;2023-07-16T12:55:32;21.80;99.90
22081;DHT22;11207;59.512;18.050;2023-07-16T12:57:59;21.80;99.90
22081;DHT22;11207;59.512;18.050;2023-07-16T13:00:25;21.90;99.90
22081;DHT22;11207;59.512;18.050;2023-07-16T13:02:50;22.00;99.90
22081;DHT22;11207;59.512;18.050;2023-07-16T13:05:16;22.30;99.90
22081;DHT22;11207;59.512;18.050;2023-07-16T13:07:41;22.40;99.90
22081;DHT22;11207;59.512;18.050;2023-07-16T13:10:08;22.40;99.90
22081;DHT22;11207;59.512;18.050;2023-07-16T13:12:34;22.40;99.90
22081;DHT22;11207;59.512;18.050;2023-07-16T13:15:00;22.50;99.90
22081;DHT22;11207;59.512;18.050;2023-07-16T13:17:25;22.50;99.90
22081;DHT22;11207;59.512;18.050;2023-07-16T13:19:51;22.60;99.90
22081;DHT22;11207;59.512;18.050;2023-07-16T13:22:16;22.60;99.90
22081;DHT22;11207;59.512;18.050;2023-07-16T13:24:42;22.60;99.90
22081;DHT22;11207;59.512;18.050;2023-07-16T13:27:10;22.60;99.90
22081;DHT22;11207;59.512;18.050;2023-07-16T13:29:44;22.60;99.90
22081;DHT22;11207;59.512;18.050;2023-07-16T13:32:09;22.50;99.90
22081;DHT22;11207;59.512;18.050;2023-07-16T13:34:35;22.50;99.90
22081;DHT22;11207;59.512;18.050;2023-07-16T13:37:01;22.50;99.90
22081;DHT22;11207;59.512;18.050;2023-07-16T13:39:26;22.40;99.90
22081;DHT22;11207;59.512;18.050;2023-07-16T13:41:52;22.40;99.90
22081;DHT22;11207;59.512;18.050;2023-07-16T13:44:17;22.30;99.90
22081;DHT22;11207;59.512;18.050;2023-07-16T13:46:43;22.40;99.90
22081;DHT22;11207;59.512;18.050;2023-07-16T13:49:09;22.40;99.90
22081;DHT22;11207;59.512;18.050;2023-07-16T13:51:34;22.20;99.90
22081;DHT22;11207;59.512;18.050;2023-07-16T13:54:00;22.20;99.90
22081;DHT22;11207;59.512;18.050;2023-07-16T13:56:25;22.10;99.90
22081;DHT22;11207;59.512;18.050;2023-07-16T13:58:51;22.10;99.90
22081;DHT22;11207;59.512;18.050;2023-07-16T14:01:18;22.10;99.90
22081;DHT22;11207;59.512;18.050;2023-07-16T14:03:43;22.10;99.90
22081;DHT22;11207;59.512;18.050;2023-07-16T14:06:09;22.10;99.90
22081;DHT22;11207;59.512;18.050;2023-07-16T14:08:35;22.10;99.90
22081;DHT22;11207;59.512;18.050;2023-07-16T14:11:01;22.30;99.90
22081;DHT22;11207;59.512;18.050;2023-07-16T14:13:28;22.40;99.90
22081;DHT22;11207;59.512;18.050;2023-07-16T14:15:53;22.50;99.90
22081;DHT22;11207;59.512;18.050;2023-07-16T14:18:19;22.50;99.90
22081;DHT22;11207;59.512;18.050;2023-07-16T14:20:45;22.50;99.90
22081;DHT22;11207;59.512;18.050;2023-07-16T14:23:10;22.50;99.90
22081;DHT22;11207;59.512;18.050;2023-07-16T14:25:36;22.50;99.90
22081;DHT22;11207;59.512;18.050;2023-07-16T14:28:01;22.40;99.90
22081;DHT22;11207;59.512;18.050;2023-07-16T14:30:27;22.50;99.90
22081;DHT22;11207;59.512;18.050;2023-07-16T14:32:52;22.50;99.90
22081;DHT22;11207;59.512;18.050;2023-07-16T14:35:19;22.60;99.90
22081;DHT22;11207;59.512;18.050;2023-07-16T14:37:44;22.60;99.90
22081;DHT22;11207;59.512;18.050;2023-07-16T14:40:10;22.60;99.90
22081;DHT22;11207;59.512;18.050;2023-07-16T14:42:36;22.50;99.90
22081;DHT22;11207;59.512;18.050;2023-07-16T14:45:02;22.50;99.90
22081;DHT22;11207;59.512;18.050;2023-07-16T14:47:30;22.40;99.90
22081;DHT22;11207;59.512;18.050;2023-07-16T14:49:55;22.30;99.90
22081;DHT22;11207;59.512;18.050;2023-07-16T14:52:21;22.30;99.90
22081;DHT22;11207;59.512;18.050;2023-07-16T14:54:46;22.30;99.90
22081;DHT22;11207;59.512;18.050;2023-07-16T14:57:12;22.40;99.90
22081;DHT22;11207;59.512;18.050;2023-07-16T14:59:38;22.30;99.90
22081;DHT22;11207;59.512;18.050;2023-07-16T15:02:04;22.20;99.90
22081;DHT22;11207;59.512;18.050;2023-07-16T15:04:30;22.30;99.90
22081;DHT22;11207;59.512;18.050;2023-07-16T15:06:55;22.40;99.90
22081;DHT22;11207;59.512;18.050;2023-07-16T15:09:21;22.40;99.90
22081;DHT22;11207;59.512;18.050;2023-07-16T15:11:47;22.40;99.90
22081;DHT22;11207;59.512;18.050;2023-07-16T15:14:13;22.40;99.90